Time;durP1;ratioP1;P1;durP2;ratioP2;P2;SDS_P1;SDS_P2;PMS_P1;PMS_P2;Temp;Humidity;BMP_temperature;BMP_pressure;BME280_temperature;BME280_humidity;BME280_pressure;Samples;Min_cycle;Max_cycle;Signal;HPM_P1;HPM_P2
2023/12/28 04:02:31;;;;;;;2.35;1.77;;;24.30;29.00;;;;;;4993211;22;45830;-83
2023/12/28 04:04:58;;;;;;;2.22;1.83;;;24.20;29.00;;;;;;4940174;28;47432;-81
2023/12/28 04:07:26;;;;;;;1.98;1.77;;;24.20;29.00;;;;;;4941945;28;66101;-83
2023/12/28 04:09:52;;;;;;;2.03;1.63;;;24.20;29.00;;;;;;4935717;28;45487;-81
2023/12/28 04:12:17;;;;;;;2.00;1.70;;;24.20;29.00;;;;;;4947894;28;45209;-82
2023/12/28 04:14:44;;;;;;;1.90;1.70;;;24.20;29.00;;;;;;4921025;28;45428;-82
2023/12/28 04:17:09;;;;;;;2.17;1.60;;;24.20;29.00;;;;;;4937348;28;45677;-81
2023/12/28 04:19:35;;;;;;;2.27;1.70;;;24.20;29.00;;;;;;4955642;28;45681;-81
2023/12/28 04:22:01;;;;;;;2.17;1.90;;;24.20;29.00;;;;;;4963244;28;45467;-81
2023/12/28 04:24:27;;;;;;;1.77;1.67;;;24.20;29.00;;;;;;4938156;28;46301;-81
2023/12/28 04:26:53;;;;;;;2.10;1.47;;;24.10;28.90;;;;;;4976950;28;45344;-81
2023/12/28 04:29:18;;;;;;;2.07;1.73;;;24.20;29.00;;;;;;4952557;28;45570;-81
2023/12/28 04:31:45;;;;;;;1.83;1.70;;;24.20;28.90;;;;;;4965403;28;45451;-81
2023/12/28 04:34:11;;;;;;;2.10;1.60;;;24.20;29.00;;;;;;4943948;28;45793;-81
2023/12/28 04:36:42;;;;;;;1.83;1.70;;;24.20;28.90;;;;;;4949935;28;45422;-81
2023/12/28 04:39:09;;;;;;;1.55;1.40;;;24.20;29.00;;;;;;4954984;28;45256;-81
2023/12/28 04:41:34;;;;;;;2.05;1.80;;;24.10;28.90;;;;;;4962352;28;45694;-81
2023/12/28 04:44:00;;;;;;;2.27;1.50;;;24.20;28.90;;;;;;4953278;28;46637;-81
2023/12/28 04:46:25;;;;;;;1.53;1.40;;;24.10;28.90;;;;;;4946625;28;44969;-82
2023/12/28 04:48:51;;;;;;;1.70;1.50;;;24.10;28.90;;;;;;4954662;28;45496;-81
2023/12/28 04:51:17;;;;;;;1.88;1.67;;;24.10;29.00;;;;;;4962313;28;45521;-82
2023/12/28 04:53:43;;;;;;;1.60;1.50;;;24.10;28.90;;;;;;4954235;28;46037;-81
2023/12/28 04:56:10;;;;;;;2.00;1.60;;;24.10;28.90;;;;;;4964186;28;45203;-81
2023/12/28 04:58:36;;;;;;;1.70;1.50;;;24.10;28.90;;;;;;4969916;28;45033;-81
2023/12/28 05:01:02;;;;;;;2.05;1.60;;;24.10;28.90;;;;;;4949608;28;44999;-81
2023/12/28 05:03:28;;;;;;;1.90;1.70;;;24.10;29.00;;;;;;4991329;28;46592;-82
2023/12/28 05:05:54;;;;;;;2.03;1.58;;;24.10;29.00;;;;;;4972746;28;44953;-81
2023/12/28 05:08:20;;;;;;;1.83;1.70;;;24.10;29.40;;;;;;4951786;28;45130;-81
2023/12/28 05:10:46;;;;;;;2.08;1.70;;;24.10;29.00;;;;;;4975042;28;45204;-81
2023/12/28 05:13:12;;;;;;;2.15;1.50;;;24.10;28.90;;;;;;4994790;28;46287;-81
2023/12/28 05:15:38;;;;;;;2.00;1.70;;;24.00;28.90;;;;;;4985860;28;45051;-82
2023/12/28 05:18:04;;;;;;;2.30;1.60;;;24.00;28.90;;;;;;4990282;28;45088;-81
2023/12/28 05:20:30;;;;;;;2.28;1.70;;;24.00;28.90;;;;;;4980504;28;45296;-81
2023/12/28 05:22:55;;;;;;;1.70;1.50;;;24.00;28.90;;;;;;4990453;28;46161;-81
2023/12/28 05:25:22;;;;;;;1.77;1.50;;;24.00;28.90;;;;;;4977117;28;45278;-81
2023/12/28 05:27:47;;;;;;;1.80;1.60;;;24.00;28.90;;;;;;4994480;28;45202;-81
2023/12/28 05:30:13;;;;;;;2.37;1.60;;;24.00;28.90;;;;;;4954067;28;44967;-81
2023/12/28 05:32:39;;;;;;;1.77;1.57;;;24.00;28.90;;;;;;4957206;28;47283;-81
2023/12/28 05:35:05;;;;;;;1.67;1.40;;;24.00;28.90;;;;;;4981643;28;44834;-81
2023/12/28 05:37:31;;;;;;;2.13;1.60;;;23.90;28.90;;;;;;4949793;28;45418;-81
2023/12/28 05:39:57;;;;;;;2.63;1.73;;;23.90;28.90;;;;;;4994722;28;45207;-82
2023/12/28 05:42:23;;;;;;;1.75;1.65;;;24.00;28.90;;;;;;4957089;28;45558;-83
2023/12/28 05:44:49;;;;;;;2.83;1.60;;;24.00;28.90;;;;;;4982531;28;45571;-81
2023/12/28 05:47:15;;;;;;;1.88;1.60;;;23.90;28.90;;;;;;4983511;28;45287;-81
2023/12/28 05:49:42;;;;;;;1.77;1.67;;;23.90;28.90;;;;;;4975653;28;45813;-81
2023/12/28 05:52:08;;;;;;;1.98;1.77;;;23.90;28.90;;;;;;4967484;28;46123;-80
2023/12/28 05:54:34;;;;;;;1.85;1.70;;;23.90;28.90;;;;;;4992794;28;45132;-81
2023/12/28 05:57:00;;;;;;;2.30;1.67;;;23.90;28.90;;;;;;4969314;28;45285;-81
2023/12/28 05:59:26;;;;;;;2.10;1.80;;;23.90;28.90;;;;;;5011854;28;45302;-83
2023/12/28 06:01:52;;;;;;;2.80;2.00;;;23.90;28.90;;;;;;5002900;28;46496;-82
2023/12/28 06:04:18;;;;;;;2.10;1.90;;;23.90;28.90;;;;;;4989802;28;45150;-82
2023/12/28 06:06:44;;;;;;;2.10;1.90;;;23.80;28.90;;;;;;4988186;28;44613;-82
2023/12/28 06:09:11;;;;;;;1.97;1.70;;;23.80;28.90;;;;;;4976038;28;44888;-81
2023/12/28 06:11:37;;;;;;;2.65;1.80;;;23.80;28.90;;;;;;4996496;28;45606;-82
2023/12/28 06:14:03;;;;;;;2.10;1.90;;;23.80;28.90;;;;;;4991106;28;44936;-83
2023/12/28 06:16:32;;;;;;;2.55;1.80;;;23.80;28.90;;;;;;4969042;28;45471;-82
2023/12/28 06:18:58;;;;;;;2.47;1.97;;;23.80;29.40;;;;;;4981923;28;45482;-82
2023/12/28 06:21:24;;;;;;;2.22;1.85;;;23.80;28.90;;;;;;4953216;28;46176;-81
2023/12/28 06:23:50;;;;;;;2.00;1.80;;;23.80;28.90;;;;;;4976476;28;45766;-81
2023/12/28 06:26:15;;;;;;;1.77;1.67;;;23.80;29.00;;;;;;4970443;28;45054;-82
2023/12/28 06:28:41;;;;;;;2.00;1.80;;;23.80;29.00;;;;;;4977743;28;45589;-81
2023/12/28 06:31:07;;;;;;;2.00;1.67;;;23.80;28.90;;;;;;4980768;28;46217;-82
2023/12/28 06:33:33;;;;;;;2.50;1.80;;;23.70;28.90;;;;;;4991275;28;45915;-82
2023/12/28 06:36:05;;;;;;;2.23;1.80;;;23.70;28.90;;;;;;4986379;28;45215;-81
2023/12/28 06:38:31;;;;;;;1.70;1.50;;;23.70;28.90;;;;;;4936060;28;45641;-82
2023/12/28 06:40:57;;;;;;;2.45;1.80;;;23.70;29.00;;;;;;4990749;28;46992;-81
2023/12/28 06:43:23;;;;;;;1.90;1.77;;;23.70;28.90;;;;;;4988293;28;44849;-82
2023/12/28 06:45:51;;;;;;;2.13;1.80;;;23.70;28.90;;;;;;4996152;28;45820;-81
2023/12/28 06:48:17;;;;;;;1.97;1.77;;;23.70;29.00;;;;;;4954064;28;44920;-81
2023/12/28 06:50:43;;;;;;;2.00;1.70;;;23.70;29.00;;;;;;4983031;28;46116;-82
2023/12/28 06:53:09;;;;;;;1.92;1.73;;;23.70;29.00;;;;;;5007682;28;45312;-82
2023/12/28 06:55:34;;;;;;;1.83;1.70;;;23.70;29.00;;;;;;4986298;28;45715;-81
2023/12/28 06:58:00;;;;;;;2.17;1.95;;;23.70;29.00;;;;;;4953710;28;45437;-81
2023/12/28 07:00:27;;;;;;;3.00;2.00;;;23.70;29.20;;;;;;4950095;28;46871;-81
2023/12/28 07:02:52;;;;;;;1.80;1.70;;;23.70;29.00;;;;;;4957482;28;45478;-81
2023/12/28 07:05:18;;;;;;;1.93;1.67;;;23.70;29.00;;;;;;4931055;28;44895;-81
2023/12/28 07:07:44;;;;;;;2.30;1.80;;;23.70;29.00;;;;;;4944042;28;45394;-81
2023/12/28 07:10:10;;;;;;;2.17;1.70;;;23.60;29.00;;;;;;4959018;28;45585;-81
2023/12/28 07:12:36;;;;;;;2.00;1.87;;;23.60;29.00;;;;;;4946037;28;45207;-81
2023/12/28 07:15:02;;;;;;;2.53;2.03;;;23.60;29.00;;;;;;4941759;28;45363;-80
2023/12/28 07:17:28;;;;;;;1.85;1.70;;;23.60;29.00;;;;;;4926374;28;45727;-81
2023/12/28 07:19:54;;;;;;;1.85;1.70;;;23.60;29.00;;;;;;4935518;28;45986;-80
2023/12/28 07:22:19;;;;;;;2.23;1.70;;;23.60;29.00;;;;;;4959119;28;45371;-81
2023/12/28 07:24:45;;;;;;;2.45;1.85;;;23.60;29.00;;;;;;4951745;28;45242;-81
2023/12/28 07:27:11;;;;;;;2.20;1.60;;;23.60;29.00;;;;;;4940086;28;45218;-81
2023/12/28 07:29:37;;;;;;;2.40;1.80;;;23.60;29.00;;;;;;4945057;28;45901;-82
2023/12/28 07:32:04;;;;;;;1.92;1.73;;;23.60;29.00;;;;;;4960181;28;49189;-81
2023/12/28 07:34:29;;;;;;;2.10;1.85;;;23.60;29.10;;;;;;4953863;28;45235;-81
2023/12/28 07:36:55;;;;;;;1.88;1.58;;;23.50;29.00;;;;;;4976278;28;45596;-81
2023/12/28 07:39:21;;;;;;;1.90;1.67;;;23.50;29.00;;;;;;4949941;28;45449;-81
2023/12/28 07:41:49;;;;;;;2.10;1.85;;;23.50;29.00;;;;;;4945875;28;45292;-82
2023/12/28 07:44:16;;;;;;;2.10;1.70;;;23.50;29.00;;;;;;4945383;28;44943;-81
2023/12/28 07:46:42;;;;;;;2.70;1.98;;;23.50;29.00;;;;;;4948523;28;45447;-82
2023/12/28 07:49:08;;;;;;;2.05;1.80;;;23.50;29.10;;;;;;4966636;28;46228;-81
2023/12/28 07:51:34;;;;;;;2.30;1.80;;;23.50;29.00;;;;;;4971444;28;45505;-82
2023/12/28 07:54:00;;;;;;;2.00;1.80;;;23.50;29.10;;;;;;4952794;28;45546;-81
2023/12/28 07:56:26;;;;;;;1.80;1.58;;;23.50;29.10;;;;;;4957901;28;45949;-81
2023/12/28 07:58:51;;;;;;;1.90;1.80;;;23.50;29.10;;;;;;4933490;28;46331;-81
2023/12/28 08:01:17;;;;;;;1.93;1.73;;;23.50;29.10;;;;;;4960237;28;45454;-81
2023/12/28 08:03:44;;;;;;;1.67;1.58;;;23.50;29.10;;;;;;4954803;28;45250;-81
2023/12/28 08:06:12;;;;;;;2.17;1.90;;;23.50;29.10;;;;;;4962034;28;45231;-80
2023/12/28 08:08:38;;;;;;;1.83;1.65;;;23.50;29.20;;;;;;4999096;28;46019;-82
2023/12/28 08:11:04;;;;;;;2.17;1.73;;;23.50;29.10;;;;;;4999679;28;45228;-81
2023/12/28 08:13:30;;;;;;;1.95;1.70;;;23.40;29.10;;;;;;4973751;28;45579;-81
2023/12/28 08:15:56;;;;;;;2.10;1.75;;;23.50;29.10;;;;;;4983612;28;45708;-81
2023/12/28 08:18:22;;;;;;;1.97;1.60;;;23.40;29.10;;;;;;4980968;28;46994;-81
2023/12/28 08:20:49;;;;;;;1.50;1.40;;;23.40;29.10;;;;;;4970338;28;45708;-81
2023/12/28 08:23:14;;;;;;;2.10;1.63;;;23.40;29.10;;;;;;4952787;28;44963;-81
2023/12/28 08:25:40;;;;;;;1.90;1.70;;;23.40;29.10;;;;;;4966413;28;45538;-82
2023/12/28 08:28:06;;;;;;;2.07;1.50;;;23.40;29.10;;;;;;4957203;28;46093;-81
2023/12/28 08:30:32;;;;;;;1.70;1.60;;;23.40;29.20;;;;;;4961563;28;45464;-81
2023/12/28 08:32:58;;;;;;;2.00;1.70;;;23.40;29.20;;;;;;4979765;28;45198;-81
2023/12/28 08:35:24;;;;;;;1.60;1.50;;;23.40;29.20;;;;;;4980456;28;45495;-81
2023/12/28 08:37:50;;;;;;;1.77;1.55;;;23.40;29.20;;;;;;4964940;28;47333;-82
2023/12/28 08:40:17;;;;;;;2.17;1.63;;;23.30;29.20;;;;;;4965733;28;45281;-81
2023/12/28 08:42:45;;;;;;;1.70;1.50;;;23.40;29.20;;;;;;4980097;28;45654;-80
2023/12/28 08:45:10;;;;;;;1.58;1.45;;;23.40;29.20;;;;;;4966457;28;45569;-81
2023/12/28 08:47:36;;;;;;;2.58;1.90;;;23.30;29.20;;;;;;4982881;28;47255;-81
2023/12/28 08:50:02;;;;;;;1.88;1.67;;;23.30;29.20;;;;;;4975499;28;46458;-81
2023/12/28 08:52:28;;;;;;;1.87;1.67;;;23.30;29.20;;;;;;4983771;28;45576;-81
2023/12/28 08:54:55;;;;;;;1.80;1.65;;;23.30;29.20;;;;;;4981250;28;45568;-81
2023/12/28 08:57:21;;;;;;;1.98;1.77;;;23.30;29.20;;;;;;4966559;28;46115;-81
2023/12/28 08:59:46;;;;;;;2.10;1.70;;;23.30;29.20;;;;;;4974921;28;45404;-82
2023/12/28 09:02:12;;;;;;;2.05;1.60;;;23.30;29.20;;;;;;4963579;28;45465;-81
2023/12/28 09:04:38;;;;;;;2.40;1.80;;;23.30;29.20;;;;;;4969463;28;45543;-81
2023/12/28 09:07:04;;;;;;;2.00;1.60;;;23.30;29.20;;;;;;4940722;28;45504;-81
2023/12/28 09:09:30;;;;;;;2.17;1.70;;;23.30;29.20;;;;;;4950025;28;45353;-82
2023/12/28 09:11:56;;;;;;;2.13;1.70;;;23.30;29.20;;;;;;4931440;28;45941;-81
2023/12/28 09:14:22;;;;;;;1.67;1.40;;;23.30;29.70;;;;;;4961083;28;45588;-81
2023/12/28 09:16:48;;;;;;;2.20;1.85;;;23.20;29.20;;;;;;4945286;28;47364;-81
2023/12/28 09:19:14;;;;;;;2.30;1.77;;;23.20;29.20;;;;;;4936078;28;45524;-81
2023/12/28 09:21:40;;;;;;;2.35;1.95;;;23.30;29.30;;;;;;4963315;28;45532;-81
2023/12/28 09:24:07;;;;;;;2.80;1.77;;;23.30;29.30;;;;;;4939960;28;45599;-81
2023/12/28 09:26:33;;;;;;;2.13;1.75;;;23.30;29.30;;;;;;4978037;28;45549;-81
2023/12/28 09:28:59;;;;;;;2.38;1.90;;;23.20;29.30;;;;;;4983140;28;45344;-81
2023/12/28 09:31:25;;;;;;;2.33;1.80;;;23.20;29.30;;;;;;4936529;28;45977;-81
2023/12/28 09:33:52;;;;;;;1.93;1.60;;;23.20;29.30;;;;;;4956566;28;45600;-81
2023/12/28 09:36:18;;;;;;;2.05;1.77;;;23.20;29.30;;;;;;4951923;28;47820;-81
2023/12/28 09:38:45;;;;;;;2.15;1.70;;;23.20;29.30;;;;;;4974409;28;45421;-81
2023/12/28 09:41:14;;;;;;;2.00;1.80;;;23.20;29.30;;;;;;4934395;28;44730;-81
2023/12/28 09:43:54;;;;;;;1.90;1.60;;;23.20;29.30;;;;;;4956295;28;45398;-81
2023/12/28 09:46:20;;;;;;;2.20;1.80;;;23.20;29.40;;;;;;4942846;28;46619;-81
2023/12/28 09:48:47;;;;;;;2.00;1.80;;;23.20;29.40;;;;;;4966486;28;45097;-81
2023/12/28 09:51:13;;;;;;;2.78;1.90;;;23.20;29.40;;;;;;4973152;28;45606;-81
2023/12/28 09:53:39;;;;;;;2.03;1.80;;;23.20;29.40;;;;;;4967869;28;45544;-81
2023/12/28 09:56:05;;;;;;;2.30;1.90;;;23.10;29.30;;;;;;4941314;28;46343;-81
2023/12/28 09:58:32;;;;;;;2.00;1.80;;;23.10;29.40;;;;;;4969116;28;45629;-81
2023/12/28 10:00:58;;;;;;;2.55;1.92;;;23.10;29.40;;;;;;4945927;28;45649;-81
2023/12/28 10:03:23;;;;;;;2.63;1.87;;;23.10;29.40;;;;;;4978733;28;45518;-81
2023/12/28 10:05:49;;;;;;;2.10;1.60;;;23.10;29.40;;;;;;4960892;28;46443;-81
2023/12/28 10:08:15;;;;;;;2.60;1.80;;;23.10;29.40;;;;;;4956254;28;45307;-81
2023/12/28 10:10:41;;;;;;;2.00;1.80;;;23.10;29.40;;;;;;4960943;28;45599;-82
2023/12/28 10:13:07;;;;;;;2.43;1.97;;;23.10;29.40;;;;;;4972838;28;44953;-82
2023/12/28 10:15:34;;;;;;;1.85;1.58;;;23.10;29.50;;;;;;4980493;28;45581;-82
2023/12/28 10:18:00;;;;;;;2.60;2.10;;;23.10;29.50;;;;;;4969277;28;45545;-81
2023/12/28 10:20:28;;;;;;;2.45;2.00;;;23.10;29.50;;;;;;4945571;28;45428;-81
2023/12/28 10:22:54;;;;;;;2.00;1.75;;;23.10;29.50;;;;;;4963226;28;45392;-81
2023/12/28 10:25:20;;;;;;;2.50;1.90;;;23.10;29.50;;;;;;5000826;28;45639;-80
2023/12/28 10:27:49;;;;;;;2.33;2.00;;;23.10;29.50;;;;;;4962762;28;46415;-81
2023/12/28 10:30:15;;;;;;;2.20;1.73;;;23.10;29.50;;;;;;4936119;28;45010;-81
2023/12/28 10:32:41;;;;;;;2.15;1.83;;;23.10;29.50;;;;;;4974084;28;44989;-82
2023/12/28 10:35:08;;;;;;;2.13;1.90;;;23.00;29.50;;;;;;4986110;28;45507;-81
2023/12/28 10:37:34;;;;;;;2.45;1.88;;;23.00;29.50;;;;;;4966806;28;45598;-82
2023/12/28 10:40:00;;;;;;;2.35;1.90;;;23.10;29.60;;;;;;4985286;28;45425;-80
2023/12/28 10:42:33;;;;;;;2.20;1.83;;;23.00;29.50;;;;;;4948639;28;45946;-82
2023/12/28 10:45:04;;;;;;;2.20;1.80;;;23.00;29.50;;;;;;4980870;28;46395;-82
2023/12/28 10:47:34;;;;;;;2.17;1.73;;;23.00;29.60;;;;;;4961961;28;45672;-81
2023/12/28 10:50:02;;;;;;;2.30;2.03;;;23.00;29.60;;;;;;4969453;28;45335;-81
2023/12/28 10:52:28;;;;;;;2.00;1.70;;;23.00;29.60;;;;;;4933559;28;45275;-82
2023/12/28 10:55:34;;;;;;;2.40;1.90;;;22.90;29.60;;;;;;4967194;28;46313;-81
2023/12/28 10:58:12;;;;;;;2.08;1.80;;;22.90;29.60;;;;;;4971812;28;45481;-81
2023/12/28 11:00:43;;;;;;;2.00;1.75;;;23.00;29.60;;;;;;4964783;28;46411;-82
2023/12/28 11:03:11;;;;;;;2.10;1.90;;;23.00;29.70;;;;;;4971683;28;45870;-81
2023/12/28 11:05:37;;;;;;;2.83;1.95;;;23.00;29.70;;;;;;4963908;28;45533;-82
2023/12/28 11:08:04;;;;;;;2.08;1.83;;;23.00;29.70;;;;;;4945298;28;45206;-81
2023/12/28 11:10:30;;;;;;;2.77;1.90;;;22.90;29.70;;;;;;4965666;28;46962;-81
2023/12/28 11:12:56;;;;;;;2.20;1.92;;;22.90;29.70;;;;;;4950494;28;45425;-80
2023/12/28 11:15:23;;;;;;;2.60;1.95;;;22.90;29.70;;;;;;4970183;28;45577;-81
2023/12/28 11:17:49;;;;;;;2.20;1.85;;;22.90;29.70;;;;;;4956468;28;45659;-81
2023/12/28 11:20:15;;;;;;;2.63;2.03;;;22.90;29.70;;;;;;4984185;28;45024;-82
2023/12/28 11:22:41;;;;;;;2.80;1.90;;;22.90;29.70;;;;;;4971395;28;44818;-81
2023/12/28 11:25:14;;;;;;;2.67;1.88;;;22.90;29.80;;;;;;4968378;28;47145;-80
2023/12/28 11:27:40;;;;;;;2.35;1.85;;;22.90;29.80;;;;;;4960560;28;45307;-82
2023/12/28 11:30:07;;;;;;;2.33;1.73;;;22.90;29.80;;;;;;5002203;28;45248;-80
2023/12/28 11:32:36;;;;;;;2.03;1.75;;;22.90;30.30;;;;;;4964318;28;45621;-81
2023/12/28 11:35:02;;;;;;;2.08;1.80;;;22.90;29.80;;;;;;4976168;28;45427;-81
2023/12/28 11:37:30;;;;;;;3.55;1.98;;;22.90;29.90;;;;;;4951099;28;45435;-81
2023/12/28 11:39:57;;;;;;;2.38;1.85;;;22.90;29.90;;;;;;4970872;28;45214;-81
2023/12/28 11:42:23;;;;;;;3.85;1.90;;;22.80;29.80;;;;;;4964968;28;45834;-81
2023/12/28 11:44:54;;;;;;;2.13;1.90;;;22.80;29.90;;;;;;4973448;28;45646;-81
2023/12/28 11:47:24;;;;;;;2.50;2.00;;;22.80;29.90;;;;;;4967900;28;45669;-81
2023/12/28 11:49:54;;;;;;;2.00;1.80;;;22.80;29.90;;;;;;4997688;28;45549;-80
2023/12/28 11:52:30;;;;;;;1.90;1.70;;;22.80;29.90;;;;;;4985282;28;44968;-81
2023/12/28 11:54:56;;;;;;;2.47;2.00;;;22.80;30.00;;;;;;4984386;28;47283;-82
2023/12/28 11:57:22;;;;;;;3.33;2.10;;;22.80;30.00;;;;;;4963369;28;45661;-82
2023/12/28 11:59:52;;;;;;;2.90;2.30;;;22.80;30.00;;;;;;4967449;28;45011;-81
2023/12/28 12:02:18;;;;;;;2.55;2.10;;;22.80;30.00;;;;;;4961673;28;45099;-81
2023/12/28 12:04:45;;;;;;;3.10;2.33;;;22.80;30.00;;;;;;4992505;28;46566;-80
2023/12/28 12:07:10;;;;;;;2.80;2.10;;;22.70;30.00;;;;;;4991076;28;45684;-81
2023/12/28 12:09:36;;;;;;;2.17;1.98;;;22.80;30.00;;;;;;4958905;28;45324;-82
2023/12/28 12:12:03;;;;;;;3.28;2.13;;;22.80;30.00;;;;;;4970482;28;45400;-81
2023/12/28 12:14:29;;;;;;;2.67;2.15;;;22.80;30.00;;;;;;4974750;28;46356;-81
2023/12/28 12:16:58;;;;;;;2.70;2.17;;;22.80;30.10;;;;;;4937271;28;45421;-81
2023/12/28 12:19:25;;;;;;;2.75;2.33;;;22.80;30.10;;;;;;4988169;28;45437;-81
2023/12/28 12:21:57;;;;;;;3.05;2.45;;;22.80;30.10;;;;;;4985731;28;45226;-81
2023/12/28 12:24:23;;;;;;;2.67;2.10;;;22.70;30.10;;;;;;4972115;28;45919;-82
2023/12/28 12:26:52;;;;;;;3.77;2.23;;;22.80;30.20;;;;;;4940280;28;45304;-81
2023/12/28 12:29:18;;;;;;;3.30;2.28;;;22.80;30.20;;;;;;4962771;28;45062;-81
2023/12/28 12:31:44;;;;;;;2.88;2.13;;;22.80;30.20;;;;;;4981951;28;45513;-81
2023/12/28 12:34:17;;;;;;;3.10;2.10;;;22.80;30.20;;;;;;4972219;28;46079;-81
2023/12/28 12:36:43;;;;;;;2.60;2.05;;;22.90;30.30;;;;;;4986245;28;45581;-81
2023/12/28 12:39:13;;;;;;;2.45;2.05;;;22.90;30.30;;;;;;4973587;28;45380;-82
2023/12/28 12:41:39;;;;;;;3.60;2.50;;;22.90;30.30;;;;;;4940436;28;45667;-81
2023/12/28 12:44:05;;;;;;;2.67;2.10;;;22.90;30.40;;;;;;4963284;28;47267;-81
2023/12/28 12:46:31;;;;;;;3.17;1.90;;;22.90;30.40;;;;;;4960227;28;45353;-80
2023/12/28 12:49:02;;;;;;;3.00;2.10;;;22.90;30.40;;;;;;4954802;28;45410;-81
2023/12/28 12:51:28;;;;;;;2.90;2.00;;;22.90;30.50;;;;;;4963050;28;45586;-83
2023/12/28 12:54:01;;;;;;;2.25;1.85;;;22.90;30.50;;;;;;4981025;28;45532;-81
2023/12/28 12:56:27;;;;;;;3.15;1.95;;;22.90;30.50;;;;;;4957597;28;45934;-81
2023/12/28 12:58:54;;;;;;;3.65;2.17;;;23.00;30.50;;;;;;4971763;28;45253;-81
2023/12/28 13:01:20;;;;;;;2.70;1.80;;;23.00;30.60;;;;;;4954811;28;45320;-81
2023/12/28 13:03:46;;;;;;;2.50;1.80;;;23.10;30.60;;;;;;4984054;28;45758;-81
2023/12/28 13:06:12;;;;;;;3.50;2.00;;;23.00;30.50;;;;;;4966332;28;45543;-81
2023/12/28 13:08:37;;;;;;;2.60;1.92;;;23.10;30.60;;;;;;4969475;28;45507;-82
2023/12/28 13:11:06;;;;;;;2.55;1.88;;;23.10;30.60;;;;;;4948613;28;45151;-82
2023/12/28 13:13:33;;;;;;;3.10;2.03;;;23.10;30.60;;;;;;4976119;28;46160;-81
2023/12/28 13:15:59;;;;;;;2.72;1.60;;;23.10;30.60;;;;;;4958611;28;45430;-81
2023/12/28 13:18:25;;;;;;;2.53;1.83;;;23.10;30.60;;;;;;4948345;28;45912;-81
2023/12/28 13:20:50;;;;;;;2.88;1.70;;;23.10;30.60;;;;;;4965648;28;45409;-81
2023/12/28 13:23:16;;;;;;;2.00;1.80;;;23.20;30.70;;;;;;4970022;28;46150;-80
2023/12/28 13:25:42;;;;;;;3.23;1.90;;;23.20;30.60;;;;;;4986638;28;45130;-82
2023/12/28 13:28:09;;;;;;;2.22;1.70;;;23.30;30.70;;;;;;4964174;28;45612;-81
2023/12/28 13:30:36;;;;;;;2.22;1.70;;;23.30;30.70;;;;;;4976447;28;45533;-81
2023/12/28 13:33:03;;;;;;;2.57;1.63;;;23.30;30.70;;;;;;4975668;28;46338;-81
2023/12/28 13:35:30;;;;;;;2.05;1.60;;;23.30;30.70;;;;;;4984447;28;45924;-82
2023/12/28 13:37:56;;;;;;;2.63;1.58;;;23.30;30.70;;;;;;4977552;28;45389;-81
2023/12/28 13:40:21;;;;;;;2.53;1.80;;;23.30;30.70;;;;;;4954232;28;45576;-81
2023/12/28 13:42:47;;;;;;;2.00;1.43;;;23.40;30.70;;;;;;4973624;28;47441;-81
2023/12/28 13:45:14;;;;;;;2.15;1.63;;;23.40;30.70;;;;;;4999690;28;45359;-80
2023/12/28 13:47:39;;;;;;;2.40;1.60;;;23.40;30.70;;;;;;5000645;28;45016;-81
2023/12/28 13:50:06;;;;;;;2.08;1.50;;;23.50;30.80;;;;;;4984777;28;46313;-82
2023/12/28 13:52:32;;;;;;;1.60;1.50;;;23.50;30.80;;;;;;4988662;28;47056;-81
2023/12/28 13:54:58;;;;;;;3.05;1.70;;;23.50;30.80;;;;;;4960483;28;45330;-81
2023/12/28 13:57:23;;;;;;;2.30;1.50;;;23.60;30.80;;;;;;4984763;28;45460;-81
2023/12/28 13:59:49;;;;;;;1.85;1.48;;;23.60;30.80;;;;;;4990515;28;45715;-81
2023/12/28 14:02:15;;;;;;;2.27;1.43;;;23.60;30.80;;;;;;4949625;28;46296;-81
2023/12/28 14:04:41;;;;;;;1.93;1.53;;;23.60;30.80;;;;;;4969785;28;45400;-81
2023/12/28 14:07:07;;;;;;;1.55;1.25;;;23.60;30.80;;;;;;4983863;28;45502;-81
2023/12/28 14:09:33;;;;;;;1.97;1.57;;;23.70;30.90;;;;;;4988592;28;45676;-81
2023/12/28 14:11:59;;;;;;;1.45;1.10;;;23.70;30.90;;;;;;4959843;28;46118;-82
2023/12/28 14:14:25;;;;;;;1.95;1.45;;;23.70;30.80;;;;;;4974047;28;45231;-81
2023/12/28 14:16:50;;;;;;;1.87;1.40;;;23.70;30.80;;;;;;4960086;28;44789;-81
2023/12/28 14:19:16;;;;;;;1.50;1.10;;;23.80;30.90;;;;;;4958514;28;45469;-81
2023/12/28 14:21:43;;;;;;;1.50;1.25;;;23.80;30.90;;;;;;4980207;28;45317;-81
2023/12/28 14:24:10;;;;;;;1.63;1.40;;;23.80;30.90;;;;;;4955584;28;45507;-81
2023/12/28 14:26:41;;;;;;;1.42;1.10;;;23.90;30.90;;;;;;4983148;28;45293;-81
2023/12/28 14:29:09;;;;;;;2.50;1.10;;;23.90;30.90;;;;;;4951630;28;44756;-83
2023/12/28 14:31:35;;;;;;;2.37;1.40;;;23.90;30.90;;;;;;4944327;28;46218;-81
2023/12/28 14:34:03;;;;;;;2.17;1.20;;;23.90;30.90;;;;;;4943010;28;45948;-82
2023/12/28 14:36:33;;;;;;;1.80;1.13;;;24.00;30.90;;;;;;4959235;28;45160;-82
2023/12/28 14:39:06;;;;;;;1.57;1.10;;;24.00;30.90;;;;;;4962733;28;45640;-81
2023/12/28 14:41:33;;;;;;;2.10;1.37;;;24.00;30.90;;;;;;4952090;28;46094;-82
2023/12/28 14:43:59;;;;;;;2.80;1.30;;;24.10;30.90;;;;;;4946378;28;45458;-81
2023/12/28 14:46:25;;;;;;;1.10;0.90;;;24.10;30.90;;;;;;4975103;28;45033;-82
2023/12/28 14:48:51;;;;;;;1.65;1.05;;;24.20;31.00;;;;;;4960600;28;45077;-82
2023/12/28 14:51:16;;;;;;;1.52;1.00;;;24.20;31.00;;;;;;4946912;28;46132;-81
2023/12/28 14:53:43;;;;;;;1.70;1.10;;;24.20;31.00;;;;;;4980625;28;45486;-80
2023/12/28 14:56:10;;;;;;;1.88;0.98;;;24.20;31.00;;;;;;4982347;28;44717;-81
2023/12/28 14:58:35;;;;;;;2.13;1.20;;;24.30;31.10;;;;;;4976668;28;45622;-81
2023/12/28 15:01:02;;;;;;;1.70;0.90;;;24.30;31.10;;;;;;4962630;28;45192;-81
2023/12/28 15:03:28;;;;;;;2.05;1.00;;;24.30;31.00;;;;;;4991074;28;45263;-83
2023/12/28 15:06:28;;;;;;;1.02;0.85;;;24.30;31.00;;;;;;4946129;28;45262;-81
2023/12/28 15:12:14;;;;;;;1.90;0.80;;;24.40;31.00;;;;;;4980241;28;47001;-82
2023/12/28 15:14:40;;;;;;;1.60;1.00;;;24.40;30.90;;;;;;4953415;28;45975;-82
2023/12/28 15:17:07;;;;;;;1.67;0.85;;;24.50;30.90;;;;;;4975216;28;45588;-82
2023/12/28 15:19:33;;;;;;;1.52;0.90;;;24.50;30.90;;;;;;4971697;28;45238;-81
2023/12/28 15:21:59;;;;;;;1.00;0.90;;;24.50;30.90;;;;;;4955135;28;47043;-82
2023/12/28 15:24:25;;;;;;;0.80;0.70;;;24.50;30.90;;;;;;4955197;28;45280;-81
2023/12/28 15:26:51;;;;;;;1.00;0.90;;;24.60;30.90;;;;;;4974481;28;45807;-82
2023/12/28 15:29:16;;;;;;;1.93;1.00;;;24.60;30.90;;;;;;4949726;28;45442;-83
2023/12/28 15:31:42;;;;;;;1.17;0.90;;;24.60;30.90;;;;;;4981713;28;47639;-81
2023/12/28 15:34:08;;;;;;;1.23;1.00;;;24.60;30.90;;;;;;4946007;28;44831;-82
2023/12/28 15:36:34;;;;;;;1.80;1.07;;;24.70;30.90;;;;;;4996706;28;45340;-82
2023/12/28 15:39:00;;;;;;;1.08;0.90;;;24.70;30.90;;;;;;4983053;28;45227;-81
2023/12/28 15:41:26;;;;;;;1.38;0.98;;;24.70;30.90;;;;;;4975652;28;46430;-82
2023/12/28 15:43:51;;;;;;;1.20;0.80;;;24.70;30.90;;;;;;4975928;28;46190;-82
2023/12/28 15:46:17;;;;;;;1.00;0.90;;;24.70;30.90;;;;;;4930225;28;45429;-82
2023/12/28 15:48:43;;;;;;;1.03;0.70;;;24.80;30.90;;;;;;4972393;28;45618;-82
2023/12/28 15:51:08;;;;;;;1.55;1.00;;;24.80;30.90;;;;;;4984150;28;45624;-81
2023/12/28 15:53:34;;;;;;;1.10;0.87;;;24.80;30.90;;;;;;4956452;28;45289;-82
2023/12/28 15:56:00;;;;;;;0.82;0.80;;;24.80;31.20;;;;;;4967302;28;45526;-81
2023/12/28 15:58:27;;;;;;;1.33;0.88;;;24.80;30.80;;;;;;4978664;28;46197;-83
2023/12/28 16:00:52;;;;;;;1.58;1.10;;;24.80;30.80;;;;;;4968550;28;46228;-82
2023/12/28 16:03:18;;;;;;;1.10;0.70;;;24.80;30.80;;;;;;4944100;28;45650;-81
2023/12/28 16:05:44;;;;;;;1.15;0.70;;;24.90;30.80;;;;;;4948603;28;45202;-82
2023/12/28 16:08:10;;;;;;;1.17;0.73;;;24.90;30.80;;;;;;4949557;28;44963;-82
2023/12/28 16:10:36;;;;;;;1.60;0.90;;;24.90;30.80;;;;;;4946702;28;47191;-81
2023/12/28 16:13:01;;;;;;;1.25;0.85;;;24.90;30.80;;;;;;4967911;28;46283;-82
2023/12/28 16:15:29;;;;;;;1.30;0.90;;;25.00;30.80;;;;;;4943879;28;45736;-82
2023/12/28 16:17:57;;;;;;;1.00;0.80;;;25.00;30.80;;;;;;4950771;28;45741;-82
2023/12/28 16:20:24;;;;;;;1.25;0.73;;;24.90;30.70;;;;;;4961034;28;45610;-81
2023/12/28 16:22:50;;;;;;;0.93;0.70;;;25.00;30.70;;;;;;4979657;28;45290;-83
2023/12/28 16:25:16;;;;;;;1.23;0.85;;;25.00;30.70;;;;;;4967254;28;45029;-80
2023/12/28 16:27:42;;;;;;;1.80;1.00;;;25.10;30.80;;;;;;4966728;28;45494;-86
2023/12/28 16:30:08;;;;;;;1.52;0.90;;;25.00;30.70;;;;;;4964036;28;46236;-81
2023/12/28 16:32:34;;;;;;;1.02;0.90;;;25.00;30.70;;;;;;4929448;28;45314;-82
2023/12/28 16:35:00;;;;;;;1.27;0.80;;;25.00;30.70;;;;;;4965121;28;45418;-82
2023/12/28 16:37:26;;;;;;;1.20;0.83;;;25.00;30.70;;;;;;4934122;28;45122;-82
2023/12/28 16:39:52;;;;;;;1.10;0.75;;;25.00;30.70;;;;;;4963760;28;46487;-82
2023/12/28 16:42:18;;;;;;;1.20;0.90;;;25.10;30.70;;;;;;4947037;28;45554;-81
2023/12/28 16:44:43;;;;;;;0.80;0.70;;;25.10;30.80;;;;;;4983376;28;45599;-82
2023/12/28 16:47:10;;;;;;;1.20;0.83;;;25.10;30.70;;;;;;4946925;28;45024;-81
2023/12/28 16:49:36;;;;;;;0.80;0.73;;;25.10;30.70;;;;;;4952485;28;45690;-82